Аэропорт: Чертовицкое. Воронеж

ICAO: UUOO

METAR:
2024-05-18 16:30:00
UUOO 181630Z 05002MPS CAVOK 17/05 Q1016 R30/010070 NOSIG RMK QFE748
TAF:
2024-05-18 14:00:00
TAF UUOO 181400Z 1815/1824 05003MPS 9999 SCT030